Time;durP1;ratioP1;P1;durP2;ratioP2;P2;SDS_P1;SDS_P2;PMS_P1;PMS_P2;Temp;Humidity;BMP_temperature;BMP_pressure;BME280_temperature;BME280_humidity;BME280_pressure;Samples;Min_cycle;Max_cycle;Signal;HPM_P1;HPM_P2
2023/09/04 00:01:30;;;;;;;7.63;7.03;;;19.10;86.50;;;;;;5053807;28;20461;-60
2023/09/04 00:03:57;;;;;;;7.33;6.63;;;19.10;86.70;;;;;;5053693;28;20446;-61
2023/09/04 00:06:24;;;;;;;7.50;6.80;;;19.10;86.50;;;;;;5053686;28;20492;-61
2023/09/04 00:08:51;;;;;;;8.20;7.40;;;19.10;86.60;;;;;;5054576;28;20454;-60
2023/09/04 00:11:19;;;;;;;7.90;7.20;;;19.10;86.60;;;;;;5052910;28;20452;-61
2023/09/04 00:13:46;;;;;;;7.87;7.03;;;19.10;86.50;;;;;;5053672;28;20477;-61
2023/09/04 00:16:13;;;;;;;6.77;6.20;;;19.10;86.60;;;;;;5053323;28;20939;-61
2023/09/04 00:18:39;;;;;;;7.00;6.40;;;19.10;86.90;;;;;;5053773;28;20453;-61
2023/09/04 00:21:06;;;;;;;9.10;7.37;;;19.10;87.00;;;;;;5053355;28;20495;-60
2023/09/04 00:23:33;;;;;;;7.80;7.10;;;19.10;87.20;;;;;;5053498;28;20429;-61
2023/09/04 00:25:59;;;;;;;7.53;6.93;;;19.10;87.20;;;;;;5053432;28;20477;-61
2023/09/04 00:28:27;;;;;;;6.67;5.93;;;19.10;87.20;;;;;;5053042;28;20444;-61
2023/09/04 00:30:56;;;;;;;8.67;7.07;;;19.10;87.30;;;;;;5053951;28;20468;-60
2023/09/04 00:33:23;;;;;;;7.80;7.10;;;19.00;87.50;;;;;;5053283;28;20469;-61
2023/09/04 00:35:50;;;;;;;7.23;6.27;;;19.00;87.60;;;;;;5053360;28;20464;-61
2023/09/04 00:38:16;;;;;;;7.30;6.70;;;19.00;87.90;;;;;;5053244;28;20448;-61
2023/09/04 00:40:43;;;;;;;7.10;6.43;;;19.00;88.10;;;;;;5052966;28;20927;-60
2023/09/04 00:43:10;;;;;;;7.60;6.30;;;19.00;88.30;;;;;;5053176;28;20495;-61
2023/09/04 00:45:38;;;;;;;7.27;6.63;;;19.00;88.30;;;;;;5053171;28;20481;-61
2023/09/04 00:48:05;;;;;;;7.47;6.77;;;18.90;88.10;;;;;;5053049;28;20457;-61
2023/09/04 00:50:32;;;;;;;7.30;6.60;;;18.90;88.00;;;;;;5053150;28;20453;-61
2023/09/04 00:53:01;;;;;;;7.07;6.47;;;18.90;88.40;;;;;;5053127;28;20480;-60
2023/09/04 00:55:29;;;;;;;8.10;6.50;;;18.90;88.60;;;;;;5053125;28;20437;-61
2023/09/04 00:57:56;;;;;;;8.53;6.50;;;18.90;88.60;;;;;;5053031;28;20452;-61
2023/09/04 01:00:25;;;;;;;7.27;6.67;;;18.90;88.80;;;;;;5053149;28;20449;-61
2023/09/04 01:02:53;;;;;;;9.30;6.90;;;18.80;88.80;;;;;;5052864;28;20461;-61
2023/09/04 01:05:20;;;;;;;7.60;6.90;;;18.80;88.90;;;;;;5052676;28;21002;-60
2023/09/04 01:07:48;;;;;;;8.07;7.37;;;18.80;88.90;;;;;;5052692;28;20821;-61
2023/09/04 01:10:15;;;;;;;8.00;7.07;;;18.70;88.80;;;;;;5052974;28;20445;-61
2023/09/04 01:12:48;;;;;;;8.07;7.20;;;18.70;88.90;;;;;;5053231;28;20468;-60
2023/09/04 01:15:15;;;;;;;8.17;7.57;;;18.60;89.10;;;;;;5052957;28;20433;-60
2023/09/04 01:17:44;;;;;;;7.73;6.10;;;18.60;89.50;;;;;;5053012;28;20467;-61
2023/09/04 01:20:24;;;;;;;6.77;6.17;;;18.60;89.60;;;;;;5052603;28;20469;-60
2023/09/04 01:22:51;;;;;;;6.97;6.30;;;18.50;89.10;;;;;;5054576;28;20484;-60
2023/09/04 01:25:18;;;;;;;6.80;6.10;;;18.50;89.20;;;;;;5056724;28;20489;-60
2023/09/04 01:27:50;;;;;;;7.13;6.30;;;18.50;89.40;;;;;;5056651;28;20817;-60
2023/09/04 01:30:25;;;;;;;7.40;6.70;;;18.50;89.70;;;;;;5056814;28;20444;-61
2023/09/04 01:33:00;;;;;;;7.17;6.60;;;18.50;89.80;;;;;;5056137;28;20970;-60
2023/09/04 01:35:31;;;;;;;6.60;6.00;;;18.40;89.90;;;;;;5056301;28;20436;-60
2023/09/04 01:37:58;;;;;;;8.00;6.60;;;18.40;90.00;;;;;;5056540;28;20444;-60
2023/09/04 01:40:25;;;;;;;7.37;6.70;;;18.40;90.10;;;;;;5056572;28;20442;-60
2023/09/04 01:42:51;;;;;;;7.03;6.23;;;18.40;90.10;;;;;;5056315;28;20468;-61
2023/09/04 01:45:18;;;;;;;7.00;6.40;;;18.40;90.20;;;;;;5056524;28;20477;-61
2023/09/04 01:47:46;;;;;;;7.43;6.83;;;18.40;90.20;;;;;;5057181;28;20446;-61
2023/09/04 01:50:13;;;;;;;8.40;6.10;;;18.30;90.20;;;;;;5058552;28;20445;-60
2023/09/04 01:52:41;;;;;;;7.10;6.50;;;18.30;90.30;;;;;;5057726;28;20479;-61
2023/09/04 01:55:08;;;;;;;7.03;6.53;;;18.30;90.20;;;;;;5057163;28;20441;-61
2023/09/04 01:57:35;;;;;;;7.97;6.47;;;18.30;90.20;;;;;;5056937;28;20878;-61
2023/09/04 02:00:03;;;;;;;8.03;6.97;;;18.20;90.20;;;;;;5057143;28;20814;-61
2023/09/04 02:02:30;;;;;;;7.50;6.33;;;18.10;90.10;;;;;;5056986;28;20465;-60
2023/09/04 02:04:57;;;;;;;7.00;6.33;;;18.10;90.20;;;;;;5056316;28;20449;-60
2023/09/04 02:07:23;;;;;;;7.23;6.53;;;18.10;90.40;;;;;;5056013;28;21035;-60
2023/09/04 02:09:51;;;;;;;7.30;6.70;;;18.00;90.40;;;;;;5056237;28;20475;-60
2023/09/04 02:12:18;;;;;;;6.73;6.13;;;18.00;90.40;;;;;;5055721;28;20883;-60
2023/09/04 02:14:45;;;;;;;7.50;6.73;;;18.00;90.40;;;;;;5055719;28;20865;-60
2023/09/04 02:17:12;;;;;;;7.50;6.77;;;18.00;90.50;;;;;;5055589;28;20950;-60
2023/09/04 02:19:39;;;;;;;6.63;6.00;;;17.90;90.40;;;;;;5055777;28;20468;-60
2023/09/04 02:22:06;;;;;;;7.10;6.27;;;17.90;90.50;;;;;;5055574;28;20476;-60
2023/09/04 02:24:33;;;;;;;11.47;6.27;;;17.90;90.50;;;;;;5055662;28;20445;-61
2023/09/04 02:27:01;;;;;;;7.80;7.10;;;17.90;90.60;;;;;;5055627;28;20477;-60
2023/09/04 02:29:29;;;;;;;7.07;6.10;;;17.90;90.60;;;;;;5055685;28;20449;-60
2023/09/04 02:31:56;;;;;;;7.77;7.10;;;17.90;90.60;;;;;;5055474;28;20484;-61
2023/09/04 02:34:22;;;;;;;8.67;6.33;;;17.90;90.60;;;;;;5054605;28;20438;-60
2023/09/04 02:36:49;;;;;;;7.67;6.37;;;17.80;90.60;;;;;;5055570;28;20449;-60
2023/09/04 02:39:16;;;;;;;7.20;6.50;;;17.80;90.70;;;;;;5055112;28;20958;-60
2023/09/04 02:41:43;;;;;;;7.37;6.77;;;17.80;90.70;;;;;;5055271;28;20476;-60
2023/09/04 02:44:11;;;;;;;7.17;6.57;;;17.80;90.70;;;;;;5055025;28;20955;-60
2023/09/04 02:46:37;;;;;;;7.50;5.77;;;17.80;90.90;;;;;;5055061;28;20886;-61
2023/09/04 02:49:04;;;;;;;7.30;6.63;;;17.80;90.90;;;;;;5055131;28;20445;-61
2023/09/04 02:51:31;;;;;;;6.80;6.10;;;17.80;90.90;;;;;;5055332;28;20466;-60
2023/09/04 02:53:57;;;;;;;7.20;6.53;;;17.70;91.00;;;;;;5055250;28;20449;-60
2023/09/04 02:56:24;;;;;;;6.43;5.93;;;17.70;91.00;;;;;;5054853;28;20434;-60
2023/09/04 02:58:51;;;;;;;8.40;6.50;;;17.70;91.10;;;;;;5054699;28;20796;-60
2023/09/04 03:01:19;;;;;;;7.40;6.33;;;17.70;91.20;;;;;;5055103;28;20446;-60
2023/09/04 03:03:46;;;;;;;8.97;6.37;;;17.70;91.40;;;;;;5054903;28;20441;-60
2023/09/04 03:06:13;;;;;;;6.90;6.30;;;17.70;91.50;;;;;;5054515;28;20481;-60
2023/09/04 03:08:39;;;;;;;7.83;6.60;;;17.70;91.70;;;;;;5054853;28;20449;-60
2023/09/04 03:11:09;;;;;;;7.73;7.03;;;17.70;91.80;;;;;;5054792;28;20442;-60
2023/09/04 03:13:36;;;;;;;6.10;5.60;;;17.70;91.80;;;;;;5054887;28;20454;-60
2023/09/04 03:16:04;;;;;;;7.83;7.20;;;17.70;91.90;;;;;;5054874;28;20827;-60
2023/09/04 03:18:32;;;;;;;8.07;7.37;;;17.60;92.00;;;;;;5054537;28;20962;-60
2023/09/04 03:20:59;;;;;;;7.50;6.83;;;17.60;92.00;;;;;;5054878;28;20450;-60
2023/09/04 03:23:26;;;;;;;7.70;7.07;;;17.60;92.10;;;;;;5054823;28;20464;-60
2023/09/04 03:25:53;;;;;;;6.93;6.23;;;17.60;92.00;;;;;;5055272;28;20531;-60
2023/09/04 03:28:20;;;;;;;7.53;6.90;;;17.60;92.20;;;;;;5054516;28;20445;-60
2023/09/04 03:30:47;;;;;;;7.83;7.03;;;17.60;92.10;;;;;;5054117;28;20955;-60
2023/09/04 03:33:13;;;;;;;7.97;7.27;;;17.50;92.10;;;;;;5054188;28;20473;-60
2023/09/04 03:35:41;;;;;;;7.60;6.90;;;17.50;92.00;;;;;;5054385;28;20449;-60
2023/09/04 03:38:08;;;;;;;7.87;6.93;;;17.50;92.00;;;;;;5054222;28;20433;-60
2023/09/04 03:40:35;;;;;;;7.73;6.93;;;17.50;91.90;;;;;;5054237;28;20445;-60
2023/09/04 03:43:02;;;;;;;6.70;6.20;;;17.50;91.90;;;;;;5053995;28;20481;-60
2023/09/04 03:45:33;;;;;;;6.67;6.17;;;17.50;92.00;;;;;;5054132;28;20453;-60
2023/09/04 03:47:59;;;;;;;7.00;6.40;;;17.40;92.00;;;;;;5053782;28;20856;-60
2023/09/04 03:50:27;;;;;;;7.97;7.10;;;17.30;91.90;;;;;;5054019;28;20448;-60
2023/09/04 03:52:55;;;;;;;7.70;7.00;;;17.30;92.00;;;;;;5053800;28;20472;-60
2023/09/04 03:55:22;;;;;;;7.53;6.90;;;17.30;92.20;;;;;;5054429;28;20441;-59
2023/09/04 03:57:51;;;;;;;6.87;6.27;;;17.30;92.20;;;;;;5054753;28;20467;-60
2023/09/04 04:00:18;;;;;;;7.73;6.37;;;17.20;92.10;;;;;;5053831;28;20450;-59
2023/09/04 04:02:46;;;;;;;7.27;6.57;;;17.10;92.10;;;;;;5053627;28;20469;-60
2023/09/04 04:05:13;;;;;;;10.33;7.07;;;17.10;92.10;;;;;;5053730;28;20446;-60
2023/09/04 04:07:40;;;;;;;7.63;6.90;;;17.10;92.00;;;;;;5053708;28;20477;-59
2023/09/04 04:10:09;;;;;;;7.00;6.33;;;17.10;92.00;;;;;;5054083;28;20472;-60
2023/09/04 04:12:36;;;;;;;7.40;6.70;;;17.10;92.00;;;;;;5053671;28;20515;-61
2023/09/04 04:15:06;;;;;;;6.50;5.90;;;17.10;92.00;;;;;;5053608;28;20488;-60
2023/09/04 04:17:33;;;;;;;7.40;6.67;;;17.10;92.10;;;;;;5053700;28;20441;-60
2023/09/04 04:19:59;;;;;;;6.57;6.07;;;17.10;92.10;;;;;;5053501;28;20449;-60
2023/09/04 04:22:26;;;;;;;8.63;6.47;;;17.10;92.20;;;;;;5053240;28;20473;-60
2023/09/04 04:24:53;;;;;;;8.13;6.60;;;17.10;92.20;;;;;;5053986;28;20444;-61
2023/09/04 04:27:22;;;;;;;7.50;6.87;;;17.10;92.20;;;;;;5053275;28;20500;-60
2023/09/04 04:29:50;;;;;;;6.97;6.40;;;17.10;92.30;;;;;;5053027;28;20815;-60
2023/09/04 04:32:17;;;;;;;7.33;6.70;;;17.10;92.30;;;;;;5052892;28;20468;-60
2023/09/04 04:34:43;;;;;;;9.33;6.60;;;17.10;92.70;;;;;;5053455;28;20446;-60
2023/09/04 04:37:10;;;;;;;6.83;6.30;;;17.10;92.40;;;;;;5053170;28;20434;-60
2023/09/04 04:39:37;;;;;;;7.33;6.70;;;17.10;92.50;;;;;;5053314;28;20445;-61
2023/09/04 04:42:04;;;;;;;7.07;6.40;;;17.10;92.70;;;;;;5053258;28;20470;-59
2023/09/04 04:44:32;;;;;;;8.30;7.20;;;17.10;92.90;;;;;;5053309;28;20449;-59
2023/09/04 04:46:59;;;;;;;9.23;6.57;;;17.10;93.00;;;;;;5053510;28;20481;-59
2023/09/04 04:49:26;;;;;;;7.80;6.90;;;17.10;93.10;;;;;;5053238;28;20445;-59
2023/09/04 04:51:54;;;;;;;11.13;7.70;;;17.20;93.10;;;;;;5053077;28;20478;-59
2023/09/04 04:54:20;;;;;;;7.73;6.93;;;17.20;93.20;;;;;;5053061;28;20449;-59
2023/09/04 04:56:48;;;;;;;7.40;6.80;;;17.20;93.30;;;;;;5053327;28;20445;-60
2023/09/04 04:59:15;;;;;;;7.80;6.60;;;17.10;93.20;;;;;;5057218;28;20499;-60
2023/09/04 05:01:43;;;;;;;7.60;7.00;;;17.10;93.20;;;;;;5057134;28;20473;-59
2023/09/04 05:04:10;;;;;;;8.90;8.10;;;17.10;93.30;;;;;;5057131;28;20445;-59
2023/09/04 05:06:37;;;;;;;9.07;8.00;;;17.10;93.30;;;;;;5057101;28;20875;-60
2023/09/04 05:09:05;;;;;;;8.03;7.43;;;17.10;93.40;;;;;;5058183;28;20454;-60
2023/09/04 05:11:31;;;;;;;11.83;7.90;;;17.10;93.50;;;;;;5060359;28;20521;-59
2023/09/04 05:13:58;;;;;;;7.90;7.03;;;17.10;93.60;;;;;;5056699;28;20449;-60
2023/09/04 05:16:26;;;;;;;8.33;7.27;;;17.20;93.80;;;;;;5056649;28;20437;-60
2023/09/04 05:18:54;;;;;;;8.50;7.63;;;17.20;93.90;;;;;;5056850;28;20503;-60
2023/09/04 05:21:21;;;;;;;7.80;7.10;;;17.20;94.10;;;;;;5056593;28;20838;-60
2023/09/04 05:23:48;;;;;;;9.07;7.90;;;17.20;94.20;;;;;;5056893;28;20454;-60
2023/09/04 05:26:15;;;;;;;8.63;7.60;;;17.20;94.40;;;;;;5056730;28;20479;-59
2023/09/04 05:28:41;;;;;;;8.70;7.70;;;17.20;94.60;;;;;;5056729;28;20457;-60
2023/09/04 05:31:08;;;;;;;7.70;7.10;;;17.20;94.90;;;;;;5056596;28;20438;-60
2023/09/04 05:33:35;;;;;;;8.20;7.40;;;17.30;95.10;;;;;;5056589;28;20441;-59
2023/09/04 05:36:03;;;;;;;8.17;7.30;;;17.40;95.20;;;;;;5056270;28;20977;-59
2023/09/04 05:38:30;;;;;;;8.47;7.67;;;17.40;95.20;;;;;;5056547;28;20442;-60
2023/09/04 05:40:57;;;;;;;7.83;7.10;;;17.40;95.20;;;;;;5056374;28;20454;-60
2023/09/04 05:43:25;;;;;;;8.23;7.43;;;17.50;95.20;;;;;;5056093;28;20557;-60
2023/09/04 05:45:51;;;;;;;6.77;6.20;;;17.50;95.20;;;;;;5056366;28;20495;-59
2023/09/04 05:48:18;;;;;;;8.53;6.90;;;17.60;95.20;;;;;;5056000;28;20485;-60
2023/09/04 05:50:45;;;;;;;7.60;6.60;;;17.60;95.10;;;;;;5056206;28;20446;-60
2023/09/04 05:53:13;;;;;;;7.30;6.67;;;17.70;95.10;;;;;;5055941;28;20990;-59
2023/09/04 05:55:42;;;;;;;7.43;6.80;;;17.70;95.10;;;;;;5056218;28;20465;-59
2023/09/04 05:58:11;;;;;;;6.93;6.33;;;17.80;95.30;;;;;;5055781;28;20963;-60
2023/09/04 06:00:38;;;;;;;10.70;8.73;;;17.80;95.20;;;;;;5064643;28;20465;-60
2023/09/04 06:03:05;;;;;;;7.67;5.73;;;17.90;95.20;;;;;;5075842;28;20468;-60
2023/09/04 06:05:31;;;;;;;8.47;7.40;;;17.90;95.10;;;;;;5076140;28;20440;-60
2023/09/04 06:07:58;;;;;;;7.40;6.57;;;17.90;95.10;;;;;;5075753;28;20480;-59
2023/09/04 06:10:26;;;;;;;7.03;6.40;;;17.90;95.10;;;;;;5074906;28;20445;-60
2023/09/04 06:12:54;;;;;;;9.57;7.13;;;18.00;95.20;;;;;;5075555;28;20460;-59
2023/09/04 06:15:21;;;;;;;8.77;7.17;;;18.10;95.30;;;;;;5075941;28;20455;-59
2023/09/04 06:17:48;;;;;;;7.40;6.70;;;18.10;95.20;;;;;;5075926;28;20440;-59
2023/09/04 06:20:16;;;;;;;6.73;6.03;;;18.20;95.20;;;;;;5075777;28;20444;-59
2023/09/04 06:22:43;;;;;;;7.80;6.10;;;18.20;95.20;;;;;;5075465;28;20472;-59
2023/09/04 06:25:10;;;;;;;7.30;5.97;;;18.20;95.10;;;;;;5075638;28;20445;-60
2023/09/04 06:27:38;;;;;;;7.60;5.97;;;18.30;95.00;;;;;;5077639;28;20482;-60
2023/09/04 06:30:06;;;;;;;6.73;6.00;;;18.30;95.00;;;;;;5079163;28;20448;-61
2023/09/04 06:32:33;;;;;;;8.17;4.73;;;18.30;95.10;;;;;;5078918;28;20465;-59
2023/09/04 06:34:59;;;;;;;7.77;5.70;;;18.40;95.00;;;;;;5075588;28;20444;-59
2023/09/04 06:37:26;;;;;;;8.27;5.50;;;18.50;94.90;;;;;;5075422;28;20862;-59
2023/09/04 06:39:53;;;;;;;5.67;5.00;;;18.50;94.80;;;;;;5075069;28;21004;-60
2023/09/04 06:42:20;;;;;;;6.10;5.50;;;18.50;94.60;;;;;;5075287;28;20468;-60
2023/09/04 06:44:48;;;;;;;6.30;4.60;;;18.60;94.60;;;;;;5075868;28;20452;-60
2023/09/04 06:47:14;;;;;;;8.67;5.10;;;18.70;94.50;;;;;;5075168;28;20484;-60
2023/09/04 06:49:41;;;;;;;6.83;4.57;;;18.80;94.40;;;;;;5075113;28;20440;-60
2023/09/04 06:52:08;;;;;;;5.20;4.80;;;18.80;94.20;;;;;;5075125;28;20838;-60
2023/09/04 06:54:35;;;;;;;4.77;4.40;;;18.90;94.00;;;;;;5075068;28;20445;-60
2023/09/04 06:57:02;;;;;;;9.60;5.13;;;19.00;94.10;;;;;;5074858;28;20480;-60
2023/09/04 06:59:29;;;;;;;6.07;5.40;;;19.10;94.00;;;;;;5074921;28;20510;-60
2023/09/04 07:01:57;;;;;;;7.13;4.80;;;19.20;94.00;;;;;;5074804;28;20476;-60
2023/09/04 07:04:23;;;;;;;7.83;6.30;;;19.20;94.00;;;;;;5074874;28;20456;-60
2023/09/04 07:06:50;;;;;;;10.57;5.43;;;19.30;93.70;;;;;;5074862;28;20449;-60
2023/09/04 07:09:17;;;;;;;5.53;5.03;;;19.40;93.80;;;;;;5074738;28;20444;-60
2023/09/04 07:11:43;;;;;;;6.33;4.93;;;19.50;93.70;;;;;;5074625;28;20480;-60
2023/09/04 07:14:10;;;;;;;9.67;4.67;;;19.60;93.50;;;;;;5074487;28;20961;-60
2023/09/04 07:16:37;;;;;;;4.80;4.10;;;19.60;93.30;;;;;;5074752;28;20445;-60
2023/09/04 07:19:05;;;;;;;4.50;4.10;;;19.70;93.10;;;;;;5074677;28;20463;-60
2023/09/04 07:21:32;;;;;;;6.93;4.90;;;19.80;92.60;;;;;;5074111;28;20472;-61
2023/09/04 07:23:59;;;;;;;6.70;4.40;;;19.90;92.40;;;;;;5074338;28;20428;-61
2023/09/04 07:26:25;;;;;;;9.00;4.60;;;20.00;92.20;;;;;;5074253;28;20949;-61
2023/09/04 07:28:53;;;;;;;6.63;4.20;;;20.10;92.00;;;;;;5073969;28;21021;-61
2023/09/04 07:31:21;;;;;;;4.13;3.60;;;20.20;91.70;;;;;;5074232;28;20445;-61
2023/09/04 07:33:48;;;;;;;4.20;3.80;;;20.30;91.50;;;;;;5073940;28;20930;-61
2023/09/04 07:36:17;;;;;;;7.10;3.73;;;20.40;91.20;;;;;;5074195;28;20440;-61
2023/09/04 07:38:44;;;;;;;6.47;4.60;;;20.50;91.00;;;;;;5074289;28;20436;-61
2023/09/04 07:41:11;;;;;;;4.40;3.20;;;20.60;90.70;;;;;;5074171;28;20444;-61
2023/09/04 07:43:38;;;;;;;4.93;3.43;;;20.70;90.40;;;;;;5074245;28;20445;-61
2023/09/04 07:46:05;;;;;;;6.40;3.67;;;20.80;90.20;;;;;;5073872;28;20437;-61
2023/09/04 07:48:33;;;;;;;3.80;3.50;;;21.00;90.00;;;;;;5074044;28;20488;-61
2023/09/04 07:51:00;;;;;;;5.73;4.00;;;21.10;88.40;;;;;;5074224;28;20453;-61
2023/09/04 07:53:28;;;;;;;3.87;3.47;;;21.20;88.30;;;;;;5074136;28;20464;-62
2023/09/04 07:55:55;;;;;;;4.20;3.50;;;21.30;88.10;;;;;;5074068;28;20445;-61
2023/09/04 07:58:21;;;;;;;4.10;3.23;;;21.40;87.80;;;;;;5073866;28;20441;-62
2023/09/04 08:00:50;;;;;;;4.30;3.27;;;21.60;87.30;;;;;;5073743;28;20472;-61
2023/09/04 08:03:17;;;;;;;3.67;3.33;;;21.80;86.50;;;;;;5073676;28;20865;-61
2023/09/04 08:05:44;;;;;;;5.13;3.43;;;21.90;85.90;;;;;;5073724;28;20449;-61
2023/09/04 08:08:11;;;;;;;3.80;3.40;;;22.10;85.20;;;;;;5073647;28;20534;-61
2023/09/04 08:10:42;;;;;;;3.80;2.80;;;22.20;83.80;;;;;;5073583;28;20450;-61
2023/09/04 08:13:11;;;;;;;4.53;3.53;;;22.40;83.10;;;;;;5073614;28;20475;-61
2023/09/04 08:15:38;;;;;;;3.63;2.70;;;22.50;81.90;;;;;;5073709;28;20443;-61
2023/09/04 08:18:07;;;;;;;4.63;3.27;;;22.70;81.20;;;;;;5073475;28;20441;-60
2023/09/04 08:20:34;;;;;;;6.33;3.73;;;22.90;80.00;;;;;;5073710;28;20441;-60
2023/09/04 08:23:01;;;;;;;4.63;3.30;;;23.00;79.10;;;;;;5074053;28;20476;-60
2023/09/04 08:25:28;;;;;;;5.47;3.03;;;23.20;78.30;;;;;;5074082;28;20441;-60
2023/09/04 08:27:56;;;;;;;3.23;2.93;;;23.40;77.30;;;;;;5073440;28;20488;-61
2023/09/04 08:30:23;;;;;;;6.07;3.60;;;23.60;77.10;;;;;;5073618;28;20444;-59
2023/09/04 08:32:50;;;;;;;3.97;3.03;;;23.80;76.90;;;;;;5072802;28;21009;-59
2023/09/04 08:35:17;;;;;;;4.20;3.47;;;23.90;76.00;;;;;;5073544;28;20535;-59
2023/09/04 08:37:45;;;;;;;3.20;2.87;;;24.00;75.10;;;;;;5073492;28;20433;-60
2023/09/04 08:40:12;;;;;;;4.17;3.17;;;24.20;74.90;;;;;;5073107;28;20818;-60
2023/09/04 08:42:40;;;;;;;3.00;2.63;;;24.40;74.90;;;;;;5073358;28;20510;-60
2023/09/04 08:45:09;;;;;;;3.50;3.03;;;24.50;74.20;;;;;;5073172;28;20816;-61
2023/09/04 08:47:39;;;;;;;3.77;2.53;;;24.70;73.40;;;;;;5064848;28;20473;-60
2023/09/04 08:50:07;;;;;;;5.50;3.63;;;24.80;72.70;;;;;;5053359;28;20422;-61
2023/09/04 08:52:36;;;;;;;3.90;2.57;;;25.00;72.00;;;;;;5053177;28;20461;-60
2023/09/04 08:55:04;;;;;;;3.03;2.77;;;25.10;71.50;;;;;;5053246;28;20450;-60
2023/09/04 08:57:32;;;;;;;2.50;2.30;;;25.30;70.70;;;;;;5053234;28;20442;-61
2023/09/04 08:59:58;;;;;;;4.27;2.90;;;25.50;69.70;;;;;;5053209;28;20445;-60
2023/09/04 09:02:27;;;;;;;5.17;2.70;;;25.70;68.90;;;;;;5052819;28;20492;-61
2023/09/04 09:04:55;;;;;;;3.17;2.70;;;25.80;68.10;;;;;;5053179;28;20441;-61
2023/09/04 09:07:23;;;;;;;2.70;2.50;;;26.00;66.90;;;;;;5052647;28;21002;-61
2023/09/04 09:09:52;;;;;;;2.57;2.37;;;26.10;66.10;;;;;;5053051;28;20445;-61
2023/09/04 09:12:18;;;;;;;3.27;2.53;;;26.30;65.60;;;;;;5052936;28;20846;-61
2023/09/04 09:14:45;;;;;;;2.20;2.00;;;26.50;64.70;;;;;;5052996;28;20449;-61
2023/09/04 09:17:14;;;;;;;2.50;2.30;;;26.60;63.90;;;;;;5052902;28;20442;-61
2023/09/04 09:19:44;;;;;;;2.77;2.20;;;26.80;62.00;;;;;;5052909;28;20441;-61
2023/09/04 09:22:12;;;;;;;4.10;2.37;;;27.00;61.30;;;;;;5052630;28;20478;-61
2023/09/04 09:24:52;;;;;;;4.43;2.60;;;27.20;60.60;;;;;;5052861;28;20446;-61
2023/09/04 09:27:20;;;;;;;2.43;2.03;;;27.50;60.40;;;;;;5052750;28;20441;-61
2023/09/04 09:29:47;;;;;;;2.80;2.30;;;27.70;57.00;;;;;;5052737;28;20481;-61
2023/09/04 09:32:16;;;;;;;3.00;2.70;;;27.80;57.20;;;;;;5052435;28;20470;-61
2023/09/04 09:34:50;;;;;;;3.30;3.00;;;28.00;56.30;;;;;;5052870;28;20445;-61
2023/09/04 09:37:17;;;;;;;3.50;2.93;;;28.20;56.10;;;;;;5052840;28;20824;-62
2023/09/04 09:39:44;;;;;;;3.33;3.03;;;28.40;56.50;;;;;;5052751;28;20441;-61
2023/09/04 09:42:11;;;;;;;6.30;3.20;;;28.60;56.00;;;;;;5052678;28;20468;-62
2023/09/04 09:44:38;;;;;;;4.60;2.53;;;28.70;55.40;;;;;;5055801;28;20855;-61
2023/09/04 09:47:07;;;;;;;3.77;2.83;;;29.00;54.70;;;;;;5056359;28;20848;-62
2023/09/04 09:49:35;;;;;;;2.70;2.50;;;29.20;54.10;;;;;;5056200;28;20580;-62
2023/09/04 09:52:06;;;;;;;4.07;2.67;;;29.40;52.70;;;;;;5056294;28;20544;-60
2023/09/04 09:54:37;;;;;;;3.67;3.37;;;29.70;51.50;;;;;;5056274;28;20425;-59
2023/09/04 09:57:07;;;;;;;4.77;2.70;;;29.90;51.20;;;;;;5056156;28;20456;-60
2023/09/04 09:59:35;;;;;;;3.43;2.93;;;30.10;49.20;;;;;;5056187;28;20520;-59
2023/09/04 10:02:03;;;;;;;3.93;3.10;;;30.40;48.70;;;;;;5056188;28;20461;-60
2023/09/04 10:04:31;;;;;;;2.90;2.70;;;30.50;47.80;;;;;;5055958;28;20840;-60
2023/09/04 10:07:00;;;;;;;3.10;2.80;;;30.70;48.30;;;;;;5055790;28;20931;-60
2023/09/04 10:09:29;;;;;;;2.80;2.60;;;30.90;48.00;;;;;;5055913;28;20499;-60
2023/09/04 10:12:03;;;;;;;3.07;2.87;;;31.10;46.40;;;;;;5055914;28;20492;-60
2023/09/04 10:14:34;;;;;;;3.10;2.90;;;31.50;45.50;;;;;;5055997;28;20425;-60
2023/09/04 10:17:03;;;;;;;4.10;3.13;;;31.70;43.40;;;;;;5055659;28;20433;-60
2023/09/04 10:19:31;;;;;;;2.93;2.73;;;32.10;44.40;;;;;;5055432;28;20935;-60
2023/09/04 10:22:03;;;;;;;3.30;3.00;;;32.50;42.90;;;;;;5055429;28;20477;-60
2023/09/04 10:24:38;;;;;;;2.60;2.40;;;32.90;41.80;;;;;;5055483;28;20487;-60
2023/09/04 10:27:09;;;;;;;4.13;3.67;;;33.30;41.60;;;;;;5055692;28;20425;-60
2023/09/04 10:29:46;;;;;;;4.53;2.90;;;33.80;41.40;;;;;;5055480;28;20473;-60
2023/09/04 10:32:14;;;;;;;2.67;2.47;;;34.20;37.90;;;;;;5055088;28;20967;-61
2023/09/04 10:34:41;;;;;;;3.30;2.60;;;34.60;37.90;;;;;;5055514;28;20450;-61
2023/09/04 10:37:10;;;;;;;2.60;2.40;;;35.00;38.00;;;;;;5055570;28;20206;-61
2023/09/04 10:39:40;;;;;;;3.70;2.87;;;35.50;37.50;;;;;;5055469;28;20229;-61
2023/09/04 10:42:07;;;;;;;2.60;2.40;;;35.90;35.30;;;;;;5055275;28;20223;-61
2023/09/04 10:44:51;;;;;;;3.55;3.25;;;36.30;34.40;;;;;;5055339;28;20579;-61
2023/09/04 10:47:19;;;;;;;5.45;3.03;;;36.70;33.90;;;;;;5054197;28;20202;-61
2023/09/04 10:49:46;;;;;;;5.43;3.88;;;37.10;33.10;;;;;;5055219;28;20631;-61
2023/09/04 10:52:13;;;;;;;4.38;2.88;;;37.50;33.00;;;;;;5055166;28;20226;-61
2023/09/04 10:54:42;;;;;;;3.92;3.38;;;37.90;32.00;;;;;;5054509;28;20285;-61
2023/09/04 10:57:12;;;;;;;4.28;2.80;;;38.30;31.40;;;;;;5055114;28;20210;-61
2023/09/04 11:00:01;;;;;;;3.42;3.00;;;38.70;30.50;;;;;;5055283;28;20198;-61
2023/09/04 11:02:29;;;;;;;3.25;2.70;;;39.10;29.70;;;;;;5054898;28;20218;-61
2023/09/04 11:04:56;;;;;;;4.13;2.50;;;39.40;29.30;;;;;;5054927;28;20217;-61
2023/09/04 11:07:34;;;;;;;3.03;2.65;;;39.80;29.00;;;;;;5054906;28;20297;-61
2023/09/04 11:10:28;;;;;;;4.00;2.50;;;40.10;27.90;;;;;;5054793;28;20226;-61
2023/09/04 11:12:55;;;;;;;2.53;2.33;;;40.50;27.90;;;;;;5054797;28;20226;-61
2023/09/04 11:15:24;;;;;;;8.25;2.67;;;40.80;26.50;;;;;;5054753;28;20206;-61
2023/09/04 11:17:51;;;;;;;4.53;2.60;;;41.10;26.40;;;;;;5054658;28;20202;-61
2023/09/04 11:20:23;;;;;;;4.85;1.95;;;41.40;25.00;;;;;;5054583;28;20202;-61
2023/09/04 11:22:49;;;;;;;2.95;2.20;;;41.50;25.50;;;;;;5054188;28;20245;-61
2023/09/04 11:25:18;;;;;;;3.28;2.58;;;41.60;25.40;;;;;;5054207;28;20211;-62
2023/09/04 11:27:46;;;;;;;2.45;2.13;;;41.90;25.80;;;;;;5054489;28;20198;-61
2023/09/04 11:30:13;;;;;;;4.57;2.38;;;42.10;24.90;;;;;;5053973;28;20708;-62
2023/09/04 11:32:40;;;;;;;1.90;1.70;;;42.30;23.80;;;;;;5054269;28;20230;-62
2023/09/04 11:35:12;;;;;;;2.08;1.92;;;42.60;24.20;;;;;;5054337;28;20202;-62
2023/09/04 11:37:38;;;;;;;2.30;2.10;;;42.80;23.90;;;;;;5054025;28;20617;-62
2023/09/04 11:40:07;;;;;;;3.63;1.90;;;43.00;23.40;;;;;;5054565;28;20202;-61
2023/09/04 11:42:36;;;;;;;2.25;1.92;;;43.20;23.00;;;;;;5055232;28;20276;-62
2023/09/04 11:45:04;;;;;;;2.47;2.28;;;43.40;22.50;;;;;;5054954;28;20567;-62
2023/09/04 11:47:32;;;;;;;2.42;1.95;;;43.50;22.20;;;;;;5054279;28;20203;-61
2023/09/04 11:49:59;;;;;;;2.33;2.05;;;43.60;22.50;;;;;;5053982;28;20631;-60
2023/09/04 11:52:27;;;;;;;2.33;2.17;;;43.80;22.00;;;;;;5054342;28;20226;-60
2023/09/04 11:54:54;;;;;;;1.98;1.77;;;43.90;22.00;;;;;;5054122;28;20202;-60
2023/09/04 11:57:21;;;;;;;2.60;1.80;;;44.10;21.20;;;;;;5054294;28;20202;-60
2023/09/04 11:59:49;;;;;;;1.60;1.50;;;44.40;21.20;;;;;;5054125;28;20199;-60
2023/09/04 12:02:16;;;;;;;4.40;2.08;;;44.60;20.80;;;;;;5054078;28;20712;-60
2023/09/04 12:04:45;;;;;;;2.58;2.20;;;45.00;21.30;;;;;;5053899;28;20209;-60
2023/09/04 12:07:13;;;;;;;3.15;2.17;;;45.30;21.40;;;;;;5052637;28;20302;-60
2023/09/04 12:09:41;;;;;;;3.17;2.10;;;45.50;20.90;;;;;;5053321;28;20221;-60
2023/09/04 12:12:08;;;;;;;1.95;1.85;;;45.80;20.60;;;;;;5053766;28;20222;-60
2023/09/04 12:14:36;;;;;;;2.28;1.80;;;45.90;20.50;;;;;;5053838;28;20231;-61
2023/09/04 12:17:10;;;;;;;2.47;2.28;;;46.10;20.80;;;;;;5053670;28;20206;-61
2023/09/04 12:19:37;;;;;;;2.30;2.10;;;46.40;20.70;;;;;;5053575;28;20187;-61
2023/09/04 12:22:11;;;;;;;2.10;2.00;;;46.60;18.60;;;;;;5053769;28;20317;-61
2023/09/04 12:24:38;;;;;;;2.25;2.08;;;46.50;18.80;;;;;;5053602;28;20197;-60
2023/09/04 12:27:05;;;;;;;1.80;1.70;;;46.60;20.00;;;;;;5053543;28;20238;-60
2023/09/04 12:29:31;;;;;;;2.40;2.20;;;46.60;19.60;;;;;;5053534;28;20284;-60
2023/09/04 12:31:59;;;;;;;1.73;1.63;;;46.60;19.70;;;;;;5053486;28;20226;-61
2023/09/04 12:34:27;;;;;;;2.65;1.75;;;46.60;19.90;;;;;;5053573;28;20264;-60
2023/09/04 12:36:55;;;;;;;1.75;1.65;;;46.70;19.50;;;;;;5053246;28;20695;-61
2023/09/04 12:39:22;;;;;;;3.67;2.03;;;46.80;19.60;;;;;;5053465;28;20199;-61
2023/09/04 12:41:54;;;;;;;1.80;1.70;;;46.90;19.10;;;;;;5053570;28;20584;-61
2023/09/04 12:44:21;;;;;;;2.30;2.00;;;47.00;18.80;;;;;;5053477;28;20183;-61
2023/09/04 12:46:48;;;;;;;2.00;1.80;;;47.10;18.80;;;;;;5053389;28;20206;-61
2023/09/04 12:49:14;;;;;;;2.67;1.70;;;47.20;18.90;;;;;;5053256;28;20226;-61